Other Surface Observations
Issued by NWS Missoula, MT

Home | Current Version | Previous Version | Text Only | Print | Product List | Glossary On
Versions: 1 2 3 4 5 6 7 8 9 10 11 12 13 14 15 16 17 18 19 20 21 22 23 24 25 26 27 28 29 30 31 32 33 34 35 36 37 38 39 40 41 42 43 44 45 46 47 48 49 50
643
SXUS55 KMSO 300923
OSOMSO
MONTANA AWOS SUMMARY
NATIONAL WEATHER SERVICE MISSOULA MT
323 AM MDT TUE AUG 30 2016

Montana AWOS Reports

LAUREL      |K6S8 300915Z AUTO 00000KT 40SM 16/08 A3010 RMK AO1 T01560078
ROUNDUP     |KRPX 300915Z AUTO 00000KT 40SM 17/07 A3004 RMK AO1 T01720072
TWIN BRIDGES|K7S1 300915Z AUTO 02005KT 40SM 14/M04 A3015 RMK AO1 T01441038




USA.gov is the U.S. government's official web portal to all federal, state and local government web resources and services.